sensor_id;sensor_type;location;lat;lon;timestamp;pressure;altitude;pressure_sealevel;temperature;humidity
68855;BME280;69984;-43.570;172.580;2023-05-19T00:01:21;100195.72;;;10.41;100.00
68855;BME280;69984;-43.570;172.580;2023-05-19T00:03:52;100194.72;;;10.42;100.00
68855;BME280;69984;-43.570;172.580;2023-05-19T00:06:24;100186.03;;;10.41;100.00
68855;BME280;69984;-43.570;172.580;2023-05-19T00:08:58;100181.94;;;10.39;100.00
68855;BME280;69984;-43.570;172.580;2023-05-19T00:11:26;100177.34;;;10.33;100.00
68855;BME280;69984;-43.570;172.580;2023-05-19T00:13:55;100173.75;;;10.42;100.00
68855;BME280;69984;-43.570;172.580;2023-05-19T00:16:25;100176.69;;;10.39;100.00
68855;BME280;69984;-43.570;172.580;2023-05-19T00:18:52;100183.09;;;10.36;100.00
68855;BME280;69984;-43.570;172.580;2023-05-19T00:21:19;100165.25;;;10.40;100.00
68855;BME280;69984;-43.570;172.580;2023-05-19T00:23:46;100164.25;;;10.33;100.00
68855;BME280;69984;-43.570;172.580;2023-05-19T00:26:14;100159.38;;;10.46;100.00
68855;BME280;69984;-43.570;172.580;2023-05-19T00:28:41;100156.06;;;10.36;100.00
68855;BME280;69984;-43.570;172.580;2023-05-19T00:31:08;100153.31;;;10.45;100.00
68855;BME280;69984;-43.570;172.580;2023-05-19T00:33:35;100149.09;;;10.52;100.00
68855;BME280;69984;-43.570;172.580;2023-05-19T00:36:03;100148.63;;;10.57;100.00
68855;BME280;69984;-43.570;172.580;2023-05-19T00:38:32;100139.94;;;10.57;100.00
68855;BME280;69984;-43.570;172.580;2023-05-19T00:41:00;100133.34;;;10.52;100.00
68855;BME280;69984;-43.570;172.580;2023-05-19T00:43:27;100123.56;;;10.55;100.00
68855;BME280;69984;-43.570;172.580;2023-05-19T00:45:59;100111.28;;;10.55;100.00
68855;BME280;69984;-43.570;172.580;2023-05-19T00:48:26;100115.19;;;10.59;100.00
68855;BME280;69984;-43.570;172.580;2023-05-19T00:50:55;100104.25;;;10.64;100.00
68855;BME280;69984;-43.570;172.580;2023-05-19T00:53:29;100099.69;;;10.66;100.00
68855;BME280;69984;-43.570;172.580;2023-05-19T00:55:57;100094.13;;;10.69;100.00
68855;BME280;69984;-43.570;172.580;2023-05-19T00:58:24;100085.06;;;10.63;100.00
68855;BME280;69984;-43.570;172.580;2023-05-19T01:00:59;100078.22;;;10.62;100.00
68855;BME280;69984;-43.570;172.580;2023-05-19T01:03:33;100072.16;;;10.62;100.00
68855;BME280;69984;-43.570;172.580;2023-05-19T01:06:01;100064.94;;;10.64;100.00
68855;BME280;69984;-43.570;172.580;2023-05-19T01:08:36;100061.50;;;10.55;100.00
68855;BME280;69984;-43.570;172.580;2023-05-19T01:11:05;100057.25;;;10.62;100.00
68855;BME280;69984;-43.570;172.580;2023-05-19T01:13:33;100049.03;;;10.57;100.00
68855;BME280;69984;-43.570;172.580;2023-05-19T01:18:51;100032.47;;;10.48;100.00
68855;BME280;69984;-43.570;172.580;2023-05-19T01:30:11;100011.22;;;10.51;100.00
68855;BME280;69984;-43.570;172.580;2023-05-19T01:32:43;100004.81;;;10.54;100.00
68855;BME280;69984;-43.570;172.580;2023-05-19T01:35:11;100001.53;;;10.60;100.00
68855;BME280;69984;-43.570;172.580;2023-05-19T01:37:41;99999.59;;;10.70;100.00
68855;BME280;69984;-43.570;172.580;2023-05-19T01:40:10;99992.88;;;10.68;100.00
68855;BME280;69984;-43.570;172.580;2023-05-19T01:42:39;99977.47;;;10.65;100.00
68855;BME280;69984;-43.570;172.580;2023-05-19T01:45:07;99985.53;;;10.79;100.00
68855;BME280;69984;-43.570;172.580;2023-05-19T01:47:41;99979.47;;;10.87;100.00
68855;BME280;69984;-43.570;172.580;2023-05-19T01:50:09;99972.09;;;10.82;100.00
68855;BME280;69984;-43.570;172.580;2023-05-19T01:52:36;99964.03;;;10.84;100.00
68855;BME280;69984;-43.570;172.580;2023-05-19T01:55:04;99965.53;;;10.86;100.00
68855;BME280;69984;-43.570;172.580;2023-05-19T02:03:32;99950.44;;;10.80;100.00
68855;BME280;69984;-43.570;172.580;2023-05-19T02:09:11;99941.47;;;10.59;100.00
68855;BME280;69984;-43.570;172.580;2023-05-19T02:11:41;99933.75;;;10.57;100.00
68855;BME280;69984;-43.570;172.580;2023-05-19T02:14:15;99937.03;;;10.51;100.00
68855;BME280;69984;-43.570;172.580;2023-05-19T02:16:46;99927.50;;;10.42;100.00
68855;BME280;69984;-43.570;172.580;2023-05-19T02:19:32;99928.34;;;10.59;100.00
68855;BME280;69984;-43.570;172.580;2023-05-19T02:22:00;99919.19;;;10.55;100.00
68855;BME280;69984;-43.570;172.580;2023-05-19T02:24:27;99909.19;;;10.50;100.00
68855;BME280;69984;-43.570;172.580;2023-05-19T02:26:54;99893.47;;;10.58;100.00
68855;BME280;69984;-43.570;172.580;2023-05-19T02:29:21;99894.78;;;10.62;100.00
68855;BME280;69984;-43.570;172.580;2023-05-19T02:31:48;99891.97;;;10.72;100.00
68855;BME280;69984;-43.570;172.580;2023-05-19T02:34:15;99884.28;;;10.70;100.00
68855;BME280;69984;-43.570;172.580;2023-05-19T02:36:42;99883.63;;;10.68;100.00
68855;BME280;69984;-43.570;172.580;2023-05-19T02:39:10;99873.28;;;10.83;100.00
68855;BME280;69984;-43.570;172.580;2023-05-19T02:41:37;99862.13;;;10.81;100.00
68855;BME280;69984;-43.570;172.580;2023-05-19T02:44:05;99865.38;;;10.91;100.00
68855;BME280;69984;-43.570;172.580;2023-05-19T02:46:32;99856.06;;;10.88;100.00
68855;BME280;69984;-43.570;172.580;2023-05-19T02:48:59;99856.56;;;10.84;100.00
68855;BME280;69984;-43.570;172.580;2023-05-19T02:51:26;99851.50;;;10.82;100.00
68855;BME280;69984;-43.570;172.580;2023-05-19T02:53:53;99848.53;;;10.85;100.00
68855;BME280;69984;-43.570;172.580;2023-05-19T02:56:20;99851.50;;;10.90;100.00
68855;BME280;69984;-43.570;172.580;2023-05-19T02:58:47;99848.00;;;10.98;100.00
68855;BME280;69984;-43.570;172.580;2023-05-19T03:01:14;99855.84;;;11.06;100.00
68855;BME280;69984;-43.570;172.580;2023-05-19T03:03:41;99857.78;;;11.12;100.00
68855;BME280;69984;-43.570;172.580;2023-05-19T03:06:08;99855.50;;;11.09;100.00
68855;BME280;69984;-43.570;172.580;2023-05-19T03:08:35;99847.66;;;11.09;100.00
68855;BME280;69984;-43.570;172.580;2023-05-19T03:11:02;99839.50;;;10.96;100.00
68855;BME280;69984;-43.570;172.580;2023-05-19T03:13:29;99840.47;;;11.03;100.00
68855;BME280;69984;-43.570;172.580;2023-05-19T03:15:57;99838.28;;;11.15;100.00
68855;BME280;69984;-43.570;172.580;2023-05-19T03:18:25;99834.66;;;11.16;100.00
68855;BME280;69984;-43.570;172.580;2023-05-19T03:20:52;99818.78;;;11.09;100.00
68855;BME280;69984;-43.570;172.580;2023-05-19T03:23:22;99829.09;;;11.19;100.00
68855;BME280;69984;-43.570;172.580;2023-05-19T03:25:49;99828.94;;;11.12;100.00
68855;BME280;69984;-43.570;172.580;2023-05-19T03:28:16;99816.50;;;11.14;100.00
68855;BME280;69984;-43.570;172.580;2023-05-19T03:30:43;99821.88;;;11.21;100.00
68855;BME280;69984;-43.570;172.580;2023-05-19T03:33:10;99824.84;;;11.18;100.00
68855;BME280;69984;-43.570;172.580;2023-05-19T03:35:38;99812.34;;;11.20;100.00
68855;BME280;69984;-43.570;172.580;2023-05-19T03:38:04;99810.19;;;11.31;100.00
68855;BME280;69984;-43.570;172.580;2023-05-19T03:40:31;99807.31;;;11.18;100.00
68855;BME280;69984;-43.570;172.580;2023-05-19T03:42:58;99803.63;;;11.27;100.00
68855;BME280;69984;-43.570;172.580;2023-05-19T03:45:26;99812.72;;;11.17;100.00
68855;BME280;69984;-43.570;172.580;2023-05-19T03:47:54;99805.50;;;11.19;100.00
68855;BME280;69984;-43.570;172.580;2023-05-19T03:50:21;99799.44;;;11.18;100.00
68855;BME280;69984;-43.570;172.580;2023-05-19T03:52:48;99786.47;;;11.17;100.00
68855;BME280;69984;-43.570;172.580;2023-05-19T03:55:15;99785.16;;;11.21;100.00
68855;BME280;69984;-43.570;172.580;2023-05-19T03:57:45;99782.94;;;11.01;100.00
68855;BME280;69984;-43.570;172.580;2023-05-19T04:00:12;99789.47;;;11.06;100.00
68855;BME280;69984;-43.570;172.580;2023-05-19T04:02:39;99796.53;;;11.05;100.00
68855;BME280;69984;-43.570;172.580;2023-05-19T04:05:07;99789.31;;;11.07;100.00
68855;BME280;69984;-43.570;172.580;2023-05-19T04:07:34;99785.38;;;11.11;100.00
68855;BME280;69984;-43.570;172.580;2023-05-19T04:10:04;99788.00;;;11.11;100.00
68855;BME280;69984;-43.570;172.580;2023-05-19T04:12:31;99793.63;;;10.92;100.00
68855;BME280;69984;-43.570;172.580;2023-05-19T04:14:58;99794.59;;;10.99;100.00
68855;BME280;69984;-43.570;172.580;2023-05-19T04:17:26;99784.78;;;10.93;100.00
68855;BME280;69984;-43.570;172.580;2023-05-19T04:19:53;99776.56;;;10.96;100.00
68855;BME280;69984;-43.570;172.580;2023-05-19T04:22:20;99769.19;;;10.99;100.00
68855;BME280;69984;-43.570;172.580;2023-05-19T04:24:47;99766.41;;;11.01;100.00
68855;BME280;69984;-43.570;172.580;2023-05-19T04:27:18;99768.38;;;10.99;100.00
68855;BME280;69984;-43.570;172.580;2023-05-19T04:29:47;99769.88;;;10.93;100.00
68855;BME280;69984;-43.570;172.580;2023-05-19T04:32:14;99775.47;;;10.82;100.00
68855;BME280;69984;-43.570;172.580;2023-05-19T04:34:44;99763.63;;;10.94;100.00
68855;BME280;69984;-43.570;172.580;2023-05-19T04:37:14;99748.28;;;10.83;100.00
68855;BME280;69984;-43.570;172.580;2023-05-19T04:39:44;99735.97;;;10.84;100.00
68855;BME280;69984;-43.570;172.580;2023-05-19T04:42:12;99739.59;;;10.83;100.00
68855;BME280;69984;-43.570;172.580;2023-05-19T04:44:39;99739.13;;;10.79;100.00
68855;BME280;69984;-43.570;172.580;2023-05-19T04:47:09;99743.06;;;10.75;100.00
68855;BME280;69984;-43.570;172.580;2023-05-19T04:49:36;99740.59;;;10.74;100.00
68855;BME280;69984;-43.570;172.580;2023-05-19T04:52:09;99727.38;;;10.67;100.00
68855;BME280;69984;-43.570;172.580;2023-05-19T04:54:38;99714.88;;;10.77;100.00
68855;BME280;69984;-43.570;172.580;2023-05-19T04:57:05;99704.41;;;10.77;100.00
68855;BME280;69984;-43.570;172.580;2023-05-19T04:59:32;99686.59;;;10.73;100.00
68855;BME280;69984;-43.570;172.580;2023-05-19T05:01:59;99674.13;;;10.67;100.00
68855;BME280;69984;-43.570;172.580;2023-05-19T05:04:26;99685.63;;;10.66;100.00
68855;BME280;69984;-43.570;172.580;2023-05-19T05:06:53;99680.19;;;10.67;100.00
68855;BME280;69984;-43.570;172.580;2023-05-19T05:09:20;99676.47;;;10.62;100.00
68855;BME280;69984;-43.570;172.580;2023-05-19T05:11:47;99673.84;;;10.62;100.00
68855;BME280;69984;-43.570;172.580;2023-05-19T05:14:14;99683.66;;;10.60;100.00
68855;BME280;69984;-43.570;172.580;2023-05-19T05:16:42;99671.88;;;10.64;100.00
68855;BME280;69984;-43.570;172.580;2023-05-19T05:19:09;99663.84;;;10.65;100.00
68855;BME280;69984;-43.570;172.580;2023-05-19T05:21:36;99672.19;;;10.69;100.00
68855;BME280;69984;-43.570;172.580;2023-05-19T05:24:03;99676.81;;;10.59;100.00
68855;BME280;69984;-43.570;172.580;2023-05-19T05:26:33;99680.09;;;10.52;100.00
68855;BME280;69984;-43.570;172.580;2023-05-19T05:29:01;99681.41;;;10.48;100.00
68855;BME280;69984;-43.570;172.580;2023-05-19T05:31:28;99671.47;;;10.44;100.00
68855;BME280;69984;-43.570;172.580;2023-05-19T05:33:56;99675.06;;;10.43;100.00
68855;BME280;69984;-43.570;172.580;2023-05-19T05:36:25;99681.13;;;10.43;100.00
68855;BME280;69984;-43.570;172.580;2023-05-19T05:38:52;99670.78;;;10.50;100.00
68855;BME280;69984;-43.570;172.580;2023-05-19T05:41:20;99672.56;;;10.49;100.00
68855;BME280;69984;-43.570;172.580;2023-05-19T05:43:47;99667.19;;;10.51;100.00
68855;BME280;69984;-43.570;172.580;2023-05-19T05:46:14;99664.50;;;10.59;100.00
68855;BME280;69984;-43.570;172.580;2023-05-19T05:48:41;99668.44;;;10.63;100.00
68855;BME280;69984;-43.570;172.580;2023-05-19T05:51:08;99655.78;;;10.67;100.00
68855;BME280;69984;-43.570;172.580;2023-05-19T05:53:41;99644.56;;;10.58;100.00
68855;BME280;69984;-43.570;172.580;2023-05-19T05:56:11;99648.47;;;10.62;100.00
68855;BME280;69984;-43.570;172.580;2023-05-19T05:58:38;99650.91;;;10.64;100.00
68855;BME280;69984;-43.570;172.580;2023-05-19T06:01:06;99645.19;;;10.60;100.00
68855;BME280;69984;-43.570;172.580;2023-05-19T06:03:39;99646.34;;;10.58;100.00
68855;BME280;69984;-43.570;172.580;2023-05-19T06:06:06;99645.22;;;10.52;100.00
68855;BME280;69984;-43.570;172.580;2023-05-19T06:08:33;99651.13;;;10.54;100.00
68855;BME280;69984;-43.570;172.580;2023-05-19T06:11:00;99656.69;;;10.51;100.00
68855;BME280;69984;-43.570;172.580;2023-05-19T06:13:34;99661.63;;;10.46;100.00
68855;BME280;69984;-43.570;172.580;2023-05-19T06:16:02;99663.41;;;10.45;100.00
68855;BME280;69984;-43.570;172.580;2023-05-19T06:18:29;99668.72;;;10.37;100.00
68855;BME280;69984;-43.570;172.580;2023-05-19T06:20:56;99669.38;;;10.31;100.00
68855;BME280;69984;-43.570;172.580;2023-05-19T06:23:23;99675.47;;;10.08;100.00
68855;BME280;69984;-43.570;172.580;2023-05-19T06:25:54;99670.22;;;10.08;100.00
68855;BME280;69984;-43.570;172.580;2023-05-19T06:28:23;99660.91;;;10.05;100.00
68855;BME280;69984;-43.570;172.580;2023-05-19T06:30:50;99659.13;;;10.06;100.00
68855;BME280;69984;-43.570;172.580;2023-05-19T06:33:17;99660.09;;;9.96;100.00
68855;BME280;69984;-43.570;172.580;2023-05-19T06:35:44;99650.16;;;9.92;100.00
68855;BME280;69984;-43.570;172.580;2023-05-19T06:38:11;99649.63;;;9.96;100.00
68855;BME280;69984;-43.570;172.580;2023-05-19T06:40:37;99650.78;;;10.02;100.00
68855;BME280;69984;-43.570;172.580;2023-05-19T06:43:04;99653.22;;;10.03;100.00
68855;BME280;69984;-43.570;172.580;2023-05-19T06:45:32;99663.81;;;10.10;100.00
68855;BME280;69984;-43.570;172.580;2023-05-19T06:47:59;99666.13;;;10.13;100.00
68855;BME280;69984;-43.570;172.580;2023-05-19T06:50:26;99669.41;;;10.23;100.00
68855;BME280;69984;-43.570;172.580;2023-05-19T06:52:53;99665.97;;;10.23;100.00
68855;BME280;69984;-43.570;172.580;2023-05-19T06:55:22;99666.59;;;10.25;100.00
68855;BME280;69984;-43.570;172.580;2023-05-19T06:57:49;99668.75;;;10.21;100.00
68855;BME280;69984;-43.570;172.580;2023-05-19T07:00:16;99674.16;;;10.20;100.00
68855;BME280;69984;-43.570;172.580;2023-05-19T07:02:44;99675.63;;;10.22;100.00
68855;BME280;69984;-43.570;172.580;2023-05-19T07:05:11;99668.09;;;10.19;100.00
68855;BME280;69984;-43.570;172.580;2023-05-19T07:07:37;99659.91;;;10.22;100.00
68855;BME280;69984;-43.570;172.580;2023-05-19T07:10:05;99667.13;;;10.20;100.00
68855;BME280;69984;-43.570;172.580;2023-05-19T07:12:32;99656.81;;;10.19;100.00
68855;BME280;69984;-43.570;172.580;2023-05-19T07:14:59;99658.59;;;10.18;100.00
68855;BME280;69984;-43.570;172.580;2023-05-19T07:17:26;99665.50;;;10.19;100.00
68855;BME280;69984;-43.570;172.580;2023-05-19T07:19:53;99659.41;;;10.11;100.00
68855;BME280;69984;-43.570;172.580;2023-05-19T07:22:21;99657.31;;;10.06;100.00
68855;BME280;69984;-43.570;172.580;2023-05-19T07:24:49;99664.16;;;10.07;100.00
68855;BME280;69984;-43.570;172.580;2023-05-19T07:27:16;99649.28;;;9.99;100.00
68855;BME280;69984;-43.570;172.580;2023-05-19T07:29:43;99652.91;;;9.98;100.00
68855;BME280;69984;-43.570;172.580;2023-05-19T07:32:10;99651.13;;;9.99;100.00
68855;BME280;69984;-43.570;172.580;2023-05-19T07:34:37;99647.00;;;9.96;100.00
68855;BME280;69984;-43.570;172.580;2023-05-19T07:37:04;99640.66;;;9.91;100.00
68855;BME280;69984;-43.570;172.580;2023-05-19T07:39:33;99650.16;;;9.92;100.00
68855;BME280;69984;-43.570;172.580;2023-05-19T07:42:00;99639.50;;;9.93;100.00
68855;BME280;69984;-43.570;172.580;2023-05-19T07:44:28;99630.69;;;9.86;100.00
68855;BME280;69984;-43.570;172.580;2023-05-19T07:46:56;99627.91;;;9.88;100.00
68855;BME280;69984;-43.570;172.580;2023-05-19T07:49:23;99619.38;;;9.86;100.00
68855;BME280;69984;-43.570;172.580;2023-05-19T07:51:50;99610.41;;;9.80;100.00
68855;BME280;69984;-43.570;172.580;2023-05-19T07:54:18;99606.16;;;9.87;100.00
68855;BME280;69984;-43.570;172.580;2023-05-19T07:56:45;99611.88;;;9.83;100.00
68855;BME280;69984;-43.570;172.580;2023-05-19T07:59:14;99622.00;;;9.86;100.00
68855;BME280;69984;-43.570;172.580;2023-05-19T08:01:41;99625.63;;;9.85;100.00
68855;BME280;69984;-43.570;172.580;2023-05-19T08:04:09;99622.00;;;9.86;100.00
68855;BME280;69984;-43.570;172.580;2023-05-19T08:06:37;99608.09;;;9.85;100.00
68855;BME280;69984;-43.570;172.580;2023-05-19T08:09:04;99604.22;;;9.81;100.00
68855;BME280;69984;-43.570;172.580;2023-05-19T08:11:31;99589.16;;;9.83;100.00
68855;BME280;69984;-43.570;172.580;2023-05-19T08:13:58;99584.59;;;9.77;100.00
68855;BME280;69984;-43.570;172.580;2023-05-19T08:16:25;99585.56;;;9.76;100.00
68855;BME280;69984;-43.570;172.580;2023-05-19T08:18:52;99583.28;;;9.73;100.00
68855;BME280;69984;-43.570;172.580;2023-05-19T08:21:20;99578.53;;;9.77;100.00
68855;BME280;69984;-43.570;172.580;2023-05-19T08:23:47;99586.88;;;9.72;100.00
68855;BME280;69984;-43.570;172.580;2023-05-19T08:26:14;99563.81;;;9.68;100.00
68855;BME280;69984;-43.570;172.580;2023-05-19T08:28:41;99555.66;;;9.63;100.00
68855;BME280;69984;-43.570;172.580;2023-05-19T08:31:11;99543.72;;;9.68;100.00
68855;BME280;69984;-43.570;172.580;2023-05-19T08:33:38;99538.81;;;9.65;100.00
68855;BME280;69984;-43.570;172.580;2023-05-19T08:36:05;99526.72;;;9.64;100.00
68855;BME280;69984;-43.570;172.580;2023-05-19T08:38:32;99531.28;;;9.70;100.00
68855;BME280;69984;-43.570;172.580;2023-05-19T08:41:00;99528.84;;;9.69;100.00
68855;BME280;69984;-43.570;172.580;2023-05-19T08:43:27;99535.84;;;9.68;100.00
68855;BME280;69984;-43.570;172.580;2023-05-19T08:45:54;99532.59;;;9.66;100.00
68855;BME280;69984;-43.570;172.580;2023-05-19T08:48:21;99536.53;;;9.62;100.00
68855;BME280;69984;-43.570;172.580;2023-05-19T08:51:04;99532.13;;;9.63;100.00
68855;BME280;69984;-43.570;172.580;2023-05-19T08:53:36;99542.25;;;9.66;100.00
68855;BME280;69984;-43.570;172.580;2023-05-19T08:56:19;99537.66;;;9.68;100.00
68855;BME280;69984;-43.570;172.580;2023-05-19T08:58:49;99519.34;;;9.68;100.00
68855;BME280;69984;-43.570;172.580;2023-05-19T09:01:18;99519.34;;;9.68;100.00
68855;BME280;69984;-43.570;172.580;2023-05-19T09:03:46;99527.53;;;9.65;100.00
68855;BME280;69984;-43.570;172.580;2023-05-19T09:06:15;99534.88;;;9.69;100.00
68855;BME280;69984;-43.570;172.580;2023-05-19T09:08:42;99535.38;;;9.73;100.00
68855;BME280;69984;-43.570;172.580;2023-05-19T09:11:10;99543.84;;;9.75;100.00
68855;BME280;69984;-43.570;172.580;2023-05-19T09:13:38;99542.72;;;9.77;100.00
68855;BME280;69984;-43.570;172.580;2023-05-19T09:16:05;99555.47;;;9.80;100.00
68855;BME280;69984;-43.570;172.580;2023-05-19T09:18:33;99561.31;;;9.82;100.00
68855;BME280;69984;-43.570;172.580;2023-05-19T09:21:00;99566.41;;;9.76;100.00
68855;BME280;69984;-43.570;172.580;2023-05-19T09:23:32;99539.75;;;9.80;100.00
68855;BME280;69984;-43.570;172.580;2023-05-19T09:26:03;99557.09;;;9.81;100.00
68855;BME280;69984;-43.570;172.580;2023-05-19T09:28:35;99544.03;;;9.73;100.00
68855;BME280;69984;-43.570;172.580;2023-05-19T09:31:06;99534.38;;;9.74;100.00
68855;BME280;69984;-43.570;172.580;2023-05-19T09:33:37;99529.97;;;9.74;100.00
68855;BME280;69984;-43.570;172.580;2023-05-19T09:36:04;99532.88;;;9.79;100.00
68855;BME280;69984;-43.570;172.580;2023-05-19T09:38:35;99521.44;;;9.80;100.00
68855;BME280;69984;-43.570;172.580;2023-05-19T09:41:03;99520.97;;;9.77;100.00
68855;BME280;69984;-43.570;172.580;2023-05-19T09:43:32;99532.41;;;9.76;100.00
68855;BME280;69984;-43.570;172.580;2023-05-19T09:46:03;99532.41;;;9.76;100.00
68855;BME280;69984;-43.570;172.580;2023-05-19T09:48:34;99539.44;;;9.75;100.00
68855;BME280;69984;-43.570;172.580;2023-05-19T09:51:02;99533.91;;;9.70;100.00
68855;BME280;69984;-43.570;172.580;2023-05-19T09:53:30;99536.03;;;9.67;100.00
68855;BME280;69984;-43.570;172.580;2023-05-19T09:55:58;99539.28;;;9.77;100.00
68855;BME280;69984;-43.570;172.580;2023-05-19T09:58:31;99540.25;;;9.76;100.00
68855;BME280;69984;-43.570;172.580;2023-05-19T10:01:00;99535.34;;;9.81;100.00
68855;BME280;69984;-43.570;172.580;2023-05-19T10:03:27;99534.03;;;9.77;100.00
68855;BME280;69984;-43.570;172.580;2023-05-19T10:05:56;99528.34;;;9.73;100.00
68855;BME280;69984;-43.570;172.580;2023-05-19T10:08:23;99526.88;;;9.71;100.00
68855;BME280;69984;-43.570;172.580;2023-05-19T10:10:52;99521.94;;;9.76;100.00
68855;BME280;69984;-43.570;172.580;2023-05-19T10:13:20;99523.09;;;9.81;100.00
68855;BME280;69984;-43.570;172.580;2023-05-19T10:15:49;99526.34;;;9.83;100.00
68855;BME280;69984;-43.570;172.580;2023-05-19T10:18:17;99527.16;;;9.84;100.00
68855;BME280;69984;-43.570;172.580;2023-05-19T10:20:45;99512.28;;;9.76;100.00
68855;BME280;69984;-43.570;172.580;2023-05-19T10:23:12;99515.72;;;9.77;100.00
68855;BME280;69984;-43.570;172.580;2023-05-19T10:25:40;99505.94;;;9.71;100.00
68855;BME280;69984;-43.570;172.580;2023-05-19T10:28:16;99522.28;;;9.73;100.00
68855;BME280;69984;-43.570;172.580;2023-05-19T10:30:49;99516.91;;;9.74;100.00
68855;BME280;69984;-43.570;172.580;2023-05-19T10:33:20;99507.09;;;9.68;100.00
68855;BME280;69984;-43.570;172.580;2023-05-19T10:36:14;99510.03;;;9.65;100.00
68855;BME280;69984;-43.570;172.580;2023-05-19T10:45:12;99507.41;;;9.65;100.00
68855;BME280;69984;-43.570;172.580;2023-05-19T10:47:45;99505.28;;;9.69;100.00
68855;BME280;69984;-43.570;172.580;2023-05-19T10:50:12;99501.19;;;9.74;100.00
68855;BME280;69984;-43.570;172.580;2023-05-19T10:52:39;99484.34;;;9.69;100.00
68855;BME280;69984;-43.570;172.580;2023-05-19T10:55:08;99488.28;;;9.73;100.00
68855;BME280;69984;-43.570;172.580;2023-05-19T10:57:53;99485.03;;;9.71;100.00
68855;BME280;69984;-43.570;172.580;2023-05-19T11:00:29;99484.06;;;9.64;100.00
68855;BME280;69984;-43.570;172.580;2023-05-19T11:03:16;99483.88;;;9.65;100.00
68855;BME280;69984;-43.570;172.580;2023-05-19T11:05:48;99488.47;;;9.63;100.00
68855;BME280;69984;-43.570;172.580;2023-05-19T11:08:31;99496.66;;;9.60;100.00
68855;BME280;69984;-43.570;172.580;2023-05-19T11:11:14;99497.44;;;9.61;100.00
68855;BME280;69984;-43.570;172.580;2023-05-19T11:13:52;99496.13;;;9.65;100.00
68855;BME280;69984;-43.570;172.580;2023-05-19T11:16:31;99495.00;;;9.67;100.00
68855;BME280;69984;-43.570;172.580;2023-05-19T11:18:58;99492.69;;;9.72;100.00
68855;BME280;69984;-43.570;172.580;2023-05-19T11:21:45;99488.63;;;9.62;100.00
68855;BME280;69984;-43.570;172.580;2023-05-19T11:24:35;99487.16;;;9.67;100.00
68855;BME280;69984;-43.570;172.580;2023-05-19T11:27:24;99484.53;;;9.67;100.00
68855;BME280;69984;-43.570;172.580;2023-05-19T11:29:49;99482.72;;;9.68;100.00
68855;BME280;69984;-43.570;172.580;2023-05-19T11:32:19;99482.72;;;9.68;100.00
68855;BME280;69984;-43.570;172.580;2023-05-19T11:34:48;99482.41;;;9.71;100.00
68855;BME280;69984;-43.570;172.580;2023-05-19T11:37:15;99471.63;;;9.66;100.00
68855;BME280;69984;-43.570;172.580;2023-05-19T11:39:44;99477.66;;;9.66;100.00
68855;BME280;69984;-43.570;172.580;2023-05-19T11:42:13;99458.53;;;9.66;100.00
68855;BME280;69984;-43.570;172.580;2023-05-19T11:44:40;99451.97;;;9.70;100.00
68855;BME280;69984;-43.570;172.580;2023-05-19T11:47:08;99445.31;;;9.67;100.00
68855;BME280;69984;-43.570;172.580;2023-05-19T11:49:35;99422.88;;;9.65;100.00
68855;BME280;69984;-43.570;172.580;2023-05-19T11:52:04;99421.59;;;9.61;100.00
68855;BME280;69984;-43.570;172.580;2023-05-19T11:54:37;99422.28;;;9.54;100.00
68855;BME280;69984;-43.570;172.580;2023-05-19T11:57:06;99417.56;;;9.50;100.00
68855;BME280;69984;-43.570;172.580;2023-05-19T11:59:35;99420.97;;;9.59;100.00
68855;BME280;69984;-43.570;172.580;2023-05-19T12:02:23;99423.44;;;9.52;100.00
68855;BME280;69984;-43.570;172.580;2023-05-19T12:04:52;99428.50;;;9.53;100.00
68855;BME280;69984;-43.570;172.580;2023-05-19T12:07:23;99430.81;;;9.48;100.00
68855;BME280;69984;-43.570;172.580;2023-05-19T12:09:51;99431.63;;;9.49;100.00
68855;BME280;69984;-43.570;172.580;2023-05-19T12:12:20;99436.53;;;9.52;100.00
68855;BME280;69984;-43.570;172.580;2023-05-19T12:14:50;99445.81;;;9.54;100.00
68855;BME280;69984;-43.570;172.580;2023-05-19T12:17:19;99444.03;;;9.47;100.00
68855;BME280;69984;-43.570;172.580;2023-05-19T12:19:47;99445.84;;;9.46;100.00
68855;BME280;69984;-43.570;172.580;2023-05-19T12:22:15;99432.94;;;9.53;100.00
68855;BME280;69984;-43.570;172.580;2023-05-19T12:24:43;99422.00;;;9.49;100.00
68855;BME280;69984;-43.570;172.580;2023-05-19T12:27:16;99420.81;;;9.60;100.00
68855;BME280;69984;-43.570;172.580;2023-05-19T12:29:47;99414.09;;;9.58;100.00
68855;BME280;69984;-43.570;172.580;2023-05-19T12:32:14;99405.25;;;9.59;100.00
68855;BME280;69984;-43.570;172.580;2023-05-19T12:34:41;99398.13;;;9.52;100.00
68855;BME280;69984;-43.570;172.580;2023-05-19T12:37:09;99395.03;;;9.49;100.00
68855;BME280;69984;-43.570;172.580;2023-05-19T12:39:36;99390.59;;;9.49;100.00
68855;BME280;69984;-43.570;172.580;2023-05-19T12:42:06;99380.94;;;9.50;100.00
68855;BME280;69984;-43.570;172.580;2023-05-19T12:44:45;99389.47;;;9.44;100.00
68855;BME280;69984;-43.570;172.580;2023-05-19T12:47:14;99381.59;;;9.52;100.00
68855;BME280;69984;-43.570;172.580;2023-05-19T12:50:02;99374.91;;;9.49;100.00
68855;BME280;69984;-43.570;172.580;2023-05-19T12:52:31;99379.81;;;9.52;100.00
68855;BME280;69984;-43.570;172.580;2023-05-19T12:55:04;99373.09;;;9.50;100.00
68855;BME280;69984;-43.570;172.580;2023-05-19T12:57:36;99379.31;;;9.49;100.00
68855;BME280;69984;-43.570;172.580;2023-05-19T13:03:04;99360.19;;;9.48;100.00